sensor_id;sensor_type;location;lat;lon;timestamp;P1;durP1;ratioP1;P2;durP2;ratioP2
56285;SDS011;42191;47.562;9.686;2023-06-01T00:02:05;36.03;;;33.63;;
56285;SDS011;42191;47.562;9.686;2023-06-01T00:04:32;36.33;;;33.72;;
56285;SDS011;42191;47.562;9.686;2023-06-01T00:06:59;36.33;;;33.65;;
56285;SDS011;42191;47.562;9.686;2023-06-01T00:09:26;38.53;;;35.75;;
56285;SDS011;42191;47.562;9.686;2023-06-01T00:11:52;35.53;;;33.10;;
56285;SDS011;42191;47.562;9.686;2023-06-01T00:14:18;35.45;;;33.05;;
56285;SDS011;42191;47.562;9.686;2023-06-01T00:16:45;35.25;;;32.95;;
56285;SDS011;42191;47.562;9.686;2023-06-01T00:19:11;34.50;;;32.22;;
56285;SDS011;42191;47.562;9.686;2023-06-01T00:21:37;35.55;;;33.33;;
56285;SDS011;42191;47.562;9.686;2023-06-01T00:24:03;36.80;;;34.13;;
56285;SDS011;42191;47.562;9.686;2023-06-01T00:26:29;35.05;;;32.75;;
56285;SDS011;42191;47.562;9.686;2023-06-01T00:28:57;37.67;;;35.28;;
56285;SDS011;42191;47.562;9.686;2023-06-01T00:31:23;36.28;;;33.88;;
56285;SDS011;42191;47.562;9.686;2023-06-01T00:33:50;37.17;;;34.50;;
56285;SDS011;42191;47.562;9.686;2023-06-01T00:36:17;36.03;;;33.63;;
56285;SDS011;42191;47.562;9.686;2023-06-01T00:38:43;38.40;;;35.83;;
56285;SDS011;42191;47.562;9.686;2023-06-01T00:41:10;37.55;;;35.15;;
56285;SDS011;42191;47.562;9.686;2023-06-01T00:43:36;34.97;;;32.58;;
56285;SDS011;42191;47.562;9.686;2023-06-01T00:46:03;38.50;;;36.00;;
56285;SDS011;42191;47.562;9.686;2023-06-01T00:48:30;35.28;;;32.85;;
56285;SDS011;42191;47.562;9.686;2023-06-01T00:50:56;37.15;;;34.80;;
56285;SDS011;42191;47.562;9.686;2023-06-01T00:53:24;36.40;;;33.80;;
56285;SDS011;42191;47.562;9.686;2023-06-01T00:55:50;36.63;;;34.13;;
56285;SDS011;42191;47.562;9.686;2023-06-01T00:58:17;36.65;;;34.25;;
56285;SDS011;42191;47.562;9.686;2023-06-01T01:00:43;36.83;;;34.42;;
56285;SDS011;42191;47.562;9.686;2023-06-01T01:03:09;36.55;;;34.05;;
56285;SDS011;42191;47.562;9.686;2023-06-01T01:05:38;36.85;;;34.17;;
56285;SDS011;42191;47.562;9.686;2023-06-01T01:13:13;38.13;;;35.40;;
56285;SDS011;42191;47.562;9.686;2023-06-01T01:15:51;37.10;;;34.70;;
56285;SDS011;42191;47.562;9.686;2023-06-01T01:18:30;35.70;;;33.35;;
56285;SDS011;42191;47.562;9.686;2023-06-01T01:21:05;37.95;;;35.45;;
56285;SDS011;42191;47.562;9.686;2023-06-01T01:29:31;35.00;;;32.60;;
56285;SDS011;42191;47.562;9.686;2023-06-01T01:31:58;37.35;;;34.92;;
56285;SDS011;42191;47.562;9.686;2023-06-01T01:34:28;36.75;;;34.13;;
56285;SDS011;42191;47.562;9.686;2023-06-01T01:36:55;35.97;;;33.47;;
56285;SDS011;42191;47.562;9.686;2023-06-01T01:39:21;36.42;;;34.03;;
56285;SDS011;42191;47.562;9.686;2023-06-01T01:41:47;36.60;;;33.90;;
56285;SDS011;42191;47.562;9.686;2023-06-01T01:44:13;36.17;;;33.88;;
56285;SDS011;42191;47.562;9.686;2023-06-01T01:49:26;35.97;;;33.63;;
56285;SDS011;42191;47.562;9.686;2023-06-01T01:54:37;35.70;;;33.30;;
56285;SDS011;42191;47.562;9.686;2023-06-01T01:57:06;35.90;;;33.40;;
56285;SDS011;42191;47.562;9.686;2023-06-01T01:59:33;36.45;;;33.85;;
56285;SDS011;42191;47.562;9.686;2023-06-01T02:02:02;35.70;;;33.40;;
56285;SDS011;42191;47.562;9.686;2023-06-01T02:04:28;39.28;;;36.63;;
56285;SDS011;42191;47.562;9.686;2023-06-01T02:06:55;36.70;;;34.30;;
56285;SDS011;42191;47.562;9.686;2023-06-01T02:09:21;36.30;;;33.92;;
56285;SDS011;42191;47.562;9.686;2023-06-01T02:11:47;36.53;;;34.13;;
56285;SDS011;42191;47.562;9.686;2023-06-01T02:14:14;37.70;;;35.20;;
56285;SDS011;42191;47.562;9.686;2023-06-01T02:16:40;36.83;;;34.22;;
56285;SDS011;42191;47.562;9.686;2023-06-01T02:19:06;38.10;;;35.45;;
56285;SDS011;42191;47.562;9.686;2023-06-01T02:21:35;36.55;;;33.85;;
56285;SDS011;42191;47.562;9.686;2023-06-01T02:24:02;37.00;;;34.60;;
56285;SDS011;42191;47.562;9.686;2023-06-01T02:26:32;39.10;;;36.60;;
56285;SDS011;42191;47.562;9.686;2023-06-01T02:28:58;36.72;;;34.22;;
56285;SDS011;42191;47.562;9.686;2023-06-01T02:31:26;36.15;;;33.75;;
56285;SDS011;42191;47.562;9.686;2023-06-01T02:33:53;34.75;;;32.33;;
56285;SDS011;42191;47.562;9.686;2023-06-01T02:36:20;36.00;;;33.70;;
56285;SDS011;42191;47.562;9.686;2023-06-01T02:38:46;37.63;;;35.22;;
56285;SDS011;42191;47.562;9.686;2023-06-01T02:41:12;37.33;;;34.72;;
56285;SDS011;42191;47.562;9.686;2023-06-01T02:43:38;37.95;;;35.38;;
56285;SDS011;42191;47.562;9.686;2023-06-01T02:46:04;36.83;;;34.33;;
56285;SDS011;42191;47.562;9.686;2023-06-01T02:48:30;37.38;;;34.85;;
56285;SDS011;42191;47.562;9.686;2023-06-01T02:50:58;36.38;;;33.97;;
56285;SDS011;42191;47.562;9.686;2023-06-01T02:53:24;37.88;;;35.35;;
56285;SDS011;42191;47.562;9.686;2023-06-01T02:55:53;35.97;;;33.42;;
56285;SDS011;42191;47.562;9.686;2023-06-01T02:58:19;36.30;;;33.88;;
56285;SDS011;42191;47.562;9.686;2023-06-01T03:00:46;37.20;;;34.60;;
56285;SDS011;42191;47.562;9.686;2023-06-01T03:03:12;38.95;;;36.38;;
56285;SDS011;42191;47.562;9.686;2023-06-01T03:05:38;37.53;;;35.03;;
56285;SDS011;42191;47.562;9.686;2023-06-01T03:08:04;36.85;;;34.45;;
56285;SDS011;42191;47.562;9.686;2023-06-01T03:10:31;36.90;;;34.40;;
56285;SDS011;42191;47.562;9.686;2023-06-01T03:12:57;38.33;;;35.72;;
56285;SDS011;42191;47.562;9.686;2023-06-01T03:15:23;35.35;;;32.95;;
56285;SDS011;42191;47.562;9.686;2023-06-01T03:17:49;37.15;;;34.65;;
56285;SDS011;42191;47.562;9.686;2023-06-01T03:20:15;37.22;;;34.65;;
56285;SDS011;42191;47.562;9.686;2023-06-01T03:22:45;36.63;;;34.08;;
56285;SDS011;42191;47.562;9.686;2023-06-01T03:25:11;38.47;;;35.92;;
56285;SDS011;42191;47.562;9.686;2023-06-01T03:27:38;37.28;;;34.70;;
56285;SDS011;42191;47.562;9.686;2023-06-01T03:30:05;37.45;;;34.95;;
56285;SDS011;42191;47.562;9.686;2023-06-01T03:32:38;37.25;;;34.85;;
56285;SDS011;42191;47.562;9.686;2023-06-01T03:35:05;38.13;;;35.58;;
56285;SDS011;42191;47.562;9.686;2023-06-01T03:37:35;37.63;;;35.13;;
56285;SDS011;42191;47.562;9.686;2023-06-01T03:40:03;38.25;;;35.75;;
56285;SDS011;42191;47.562;9.686;2023-06-01T03:42:40;37.47;;;34.97;;
56285;SDS011;42191;47.562;9.686;2023-06-01T03:45:08;37.28;;;34.85;;
56285;SDS011;42191;47.562;9.686;2023-06-01T03:47:36;38.55;;;35.85;;
56285;SDS011;42191;47.562;9.686;2023-06-01T03:50:03;37.85;;;35.42;;
56285;SDS011;42191;47.562;9.686;2023-06-01T03:52:31;39.75;;;36.95;;
56285;SDS011;42191;47.562;9.686;2023-06-01T03:54:58;38.67;;;35.92;;
56285;SDS011;42191;47.562;9.686;2023-06-01T03:57:26;38.08;;;35.47;;
56285;SDS011;42191;47.562;9.686;2023-06-01T03:59:53;37.00;;;34.55;;
56285;SDS011;42191;47.562;9.686;2023-06-01T04:02:19;36.60;;;34.10;;
56285;SDS011;42191;47.562;9.686;2023-06-01T04:04:47;37.45;;;34.75;;
56285;SDS011;42191;47.562;9.686;2023-06-01T04:07:13;36.22;;;33.92;;
56285;SDS011;42191;47.562;9.686;2023-06-01T04:09:44;36.70;;;34.30;;
56285;SDS011;42191;47.562;9.686;2023-06-01T04:12:12;38.20;;;35.60;;
56285;SDS011;42191;47.562;9.686;2023-06-01T04:14:38;36.38;;;33.78;;
56285;SDS011;42191;47.562;9.686;2023-06-01T04:17:05;38.17;;;35.58;;
56285;SDS011;42191;47.562;9.686;2023-06-01T04:19:32;37.22;;;34.63;;
56285;SDS011;42191;47.562;9.686;2023-06-01T04:22:01;37.67;;;34.67;;
56285;SDS011;42191;47.562;9.686;2023-06-01T04:24:27;38.38;;;35.55;;
56285;SDS011;42191;47.562;9.686;2023-06-01T04:26:53;37.35;;;34.75;;
56285;SDS011;42191;47.562;9.686;2023-06-01T04:29:21;35.97;;;33.63;;
56285;SDS011;42191;47.562;9.686;2023-06-01T04:31:47;36.10;;;33.72;;
56285;SDS011;42191;47.562;9.686;2023-06-01T04:34:14;36.92;;;34.35;;
56285;SDS011;42191;47.562;9.686;2023-06-01T04:36:40;37.50;;;35.00;;
56285;SDS011;42191;47.562;9.686;2023-06-01T04:39:06;36.67;;;34.25;;
56285;SDS011;42191;47.562;9.686;2023-06-01T04:41:33;37.03;;;34.53;;
56285;SDS011;42191;47.562;9.686;2023-06-01T04:44:00;37.22;;;34.63;;
56285;SDS011;42191;47.562;9.686;2023-06-01T04:46:31;36.70;;;34.20;;
56285;SDS011;42191;47.562;9.686;2023-06-01T04:48:57;34.85;;;32.33;;
56285;SDS011;42191;47.562;9.686;2023-06-01T04:51:25;33.88;;;31.58;;
56285;SDS011;42191;47.562;9.686;2023-06-01T04:53:52;35.88;;;33.58;;
56285;SDS011;42191;47.562;9.686;2023-06-01T04:56:19;36.80;;;34.30;;
56285;SDS011;42191;47.562;9.686;2023-06-01T04:58:52;36.20;;;33.70;;
56285;SDS011;42191;47.562;9.686;2023-06-01T05:01:22;36.42;;;33.95;;
56285;SDS011;42191;47.562;9.686;2023-06-01T05:03:54;37.83;;;35.13;;
56285;SDS011;42191;47.562;9.686;2023-06-01T05:06:20;37.10;;;34.35;;
56285;SDS011;42191;47.562;9.686;2023-06-01T05:08:47;36.63;;;34.22;;
56285;SDS011;42191;47.562;9.686;2023-06-01T05:11:13;37.30;;;34.80;;
56285;SDS011;42191;47.562;9.686;2023-06-01T05:13:40;36.53;;;34.08;;
56285;SDS011;42191;47.562;9.686;2023-06-01T05:16:07;36.70;;;34.20;;
56285;SDS011;42191;47.562;9.686;2023-06-01T05:18:34;37.72;;;35.05;;
56285;SDS011;42191;47.562;9.686;2023-06-01T05:21:01;38.35;;;35.78;;
56285;SDS011;42191;47.562;9.686;2023-06-01T05:23:27;37.85;;;35.25;;
56285;SDS011;42191;47.562;9.686;2023-06-01T05:25:54;38.83;;;36.03;;
56285;SDS011;42191;47.562;9.686;2023-06-01T05:30:56;37.15;;;34.65;;
56285;SDS011;42191;47.562;9.686;2023-06-01T05:33:22;37.45;;;34.78;;
56285;SDS011;42191;47.562;9.686;2023-06-01T05:35:49;38.78;;;36.05;;
56285;SDS011;42191;47.562;9.686;2023-06-01T05:38:15;37.03;;;34.60;;
56285;SDS011;42191;47.562;9.686;2023-06-01T05:40:41;36.70;;;34.10;;
56285;SDS011;42191;47.562;9.686;2023-06-01T05:43:07;37.97;;;35.47;;
56285;SDS011;42191;47.562;9.686;2023-06-01T05:45:33;37.97;;;35.47;;
56285;SDS011;42191;47.562;9.686;2023-06-01T05:47:59;37.47;;;34.97;;
56285;SDS011;42191;47.562;9.686;2023-06-01T05:50:25;38.35;;;35.70;;
56285;SDS011;42191;47.562;9.686;2023-06-01T05:52:51;37.90;;;34.90;;
56285;SDS011;42191;47.562;9.686;2023-06-01T05:55:18;37.95;;;35.25;;
56285;SDS011;42191;47.562;9.686;2023-06-01T05:57:44;37.90;;;35.20;;
56285;SDS011;42191;47.562;9.686;2023-06-01T06:00:11;35.67;;;33.00;;
56285;SDS011;42191;47.562;9.686;2023-06-01T06:02:38;36.85;;;34.38;;
56285;SDS011;42191;47.562;9.686;2023-06-01T06:05:07;38.28;;;35.63;;
56285;SDS011;42191;47.562;9.686;2023-06-01T06:07:34;37.10;;;34.40;;
56285;SDS011;42191;47.562;9.686;2023-06-01T06:10:00;36.05;;;33.65;;
56285;SDS011;42191;47.562;9.686;2023-06-01T06:12:26;39.60;;;36.70;;
56285;SDS011;42191;47.562;9.686;2023-06-01T06:14:52;37.30;;;34.45;;
56285;SDS011;42191;47.562;9.686;2023-06-01T06:17:19;35.97;;;33.38;;
56285;SDS011;42191;47.562;9.686;2023-06-01T06:19:45;37.35;;;34.75;;
56285;SDS011;42191;47.562;9.686;2023-06-01T06:22:12;38.67;;;35.78;;
56285;SDS011;42191;47.562;9.686;2023-06-01T06:24:38;36.67;;;34.08;;
56285;SDS011;42191;47.562;9.686;2023-06-01T06:27:04;37.30;;;34.58;;
56285;SDS011;42191;47.562;9.686;2023-06-01T06:29:31;37.35;;;34.65;;
56285;SDS011;42191;47.562;9.686;2023-06-01T06:31:57;37.45;;;34.42;;
56285;SDS011;42191;47.562;9.686;2023-06-01T06:34:24;38.65;;;35.78;;
56285;SDS011;42191;47.562;9.686;2023-06-01T06:36:50;37.92;;;35.22;;
56285;SDS011;42191;47.562;9.686;2023-06-01T06:39:17;37.83;;;35.15;;
56285;SDS011;42191;47.562;9.686;2023-06-01T06:41:43;39.90;;;36.90;;
56285;SDS011;42191;47.562;9.686;2023-06-01T06:44:10;36.22;;;33.63;;
56285;SDS011;42191;47.562;9.686;2023-06-01T06:46:36;36.97;;;34.35;;
56285;SDS011;42191;47.562;9.686;2023-06-01T06:49:03;36.80;;;34.15;;
56285;SDS011;42191;47.562;9.686;2023-06-01T06:51:30;38.47;;;35.40;;
56285;SDS011;42191;47.562;9.686;2023-06-01T06:53:56;37.78;;;34.97;;
56285;SDS011;42191;47.562;9.686;2023-06-01T06:56:23;36.90;;;34.30;;
56285;SDS011;42191;47.562;9.686;2023-06-01T06:58:50;36.78;;;33.97;;
56285;SDS011;42191;47.562;9.686;2023-06-01T07:01:16;38.25;;;35.35;;
56285;SDS011;42191;47.562;9.686;2023-06-01T07:03:42;36.58;;;33.92;;
56285;SDS011;42191;47.562;9.686;2023-06-01T07:06:08;37.17;;;34.67;;
56285;SDS011;42191;47.562;9.686;2023-06-01T07:08:34;37.65;;;34.95;;
56285;SDS011;42191;47.562;9.686;2023-06-01T07:11:01;36.58;;;33.78;;
56285;SDS011;42191;47.562;9.686;2023-06-01T07:13:27;37.15;;;34.35;;
56285;SDS011;42191;47.562;9.686;2023-06-01T07:15:53;35.97;;;33.25;;
56285;SDS011;42191;47.562;9.686;2023-06-01T07:18:19;38.20;;;35.38;;
56285;SDS011;42191;47.562;9.686;2023-06-01T07:20:45;37.33;;;34.63;;
56285;SDS011;42191;47.562;9.686;2023-06-01T07:23:11;37.90;;;35.25;;
56285;SDS011;42191;47.562;9.686;2023-06-01T07:25:38;36.55;;;34.08;;
56285;SDS011;42191;47.562;9.686;2023-06-01T07:28:04;37.78;;;35.13;;
56285;SDS011;42191;47.562;9.686;2023-06-01T07:30:33;37.47;;;34.80;;
56285;SDS011;42191;47.562;9.686;2023-06-01T07:32:59;37.53;;;34.97;;
56285;SDS011;42191;47.562;9.686;2023-06-01T07:35:26;36.92;;;34.08;;
56285;SDS011;42191;47.562;9.686;2023-06-01T07:37:53;34.83;;;32.22;;
56285;SDS011;42191;47.562;9.686;2023-06-01T07:40:19;36.30;;;33.65;;
56285;SDS011;42191;47.562;9.686;2023-06-01T07:42:45;37.60;;;34.97;;
56285;SDS011;42191;47.562;9.686;2023-06-01T07:45:11;36.53;;;33.97;;
56285;SDS011;42191;47.562;9.686;2023-06-01T07:47:38;37.92;;;35.25;;
56285;SDS011;42191;47.562;9.686;2023-06-01T07:50:04;37.45;;;34.75;;
56285;SDS011;42191;47.562;9.686;2023-06-01T07:52:31;37.25;;;34.45;;
56285;SDS011;42191;47.562;9.686;2023-06-01T07:54:57;38.33;;;35.53;;
56285;SDS011;42191;47.562;9.686;2023-06-01T07:57:23;39.22;;;36.30;;
56285;SDS011;42191;47.562;9.686;2023-06-01T07:59:50;36.50;;;33.80;;
56285;SDS011;42191;47.562;9.686;2023-06-01T08:02:16;37.88;;;35.20;;
56285;SDS011;42191;47.562;9.686;2023-06-01T08:04:42;36.72;;;34.13;;
56285;SDS011;42191;47.562;9.686;2023-06-01T08:07:09;38.28;;;35.40;;
56285;SDS011;42191;47.562;9.686;2023-06-01T08:09:37;38.55;;;35.72;;
56285;SDS011;42191;47.562;9.686;2023-06-01T08:12:03;37.00;;;34.33;;
56285;SDS011;42191;47.562;9.686;2023-06-01T08:14:30;36.15;;;33.55;;
56285;SDS011;42191;47.562;9.686;2023-06-01T08:17:00;36.50;;;33.92;;
56285;SDS011;42191;47.562;9.686;2023-06-01T08:19:27;36.58;;;34.17;;
56285;SDS011;42191;47.562;9.686;2023-06-01T08:21:53;37.00;;;34.47;;
56285;SDS011;42191;47.562;9.686;2023-06-01T08:24:20;37.25;;;34.63;;
56285;SDS011;42191;47.562;9.686;2023-06-01T08:26:49;36.33;;;33.53;;
56285;SDS011;42191;47.562;9.686;2023-06-01T08:29:19;38.60;;;35.70;;
56285;SDS011;42191;47.562;9.686;2023-06-01T08:31:46;38.10;;;35.35;;
56285;SDS011;42191;47.562;9.686;2023-06-01T08:34:12;37.30;;;34.53;;
56285;SDS011;42191;47.562;9.686;2023-06-01T08:36:38;38.85;;;36.17;;
56285;SDS011;42191;47.562;9.686;2023-06-01T08:39:22;38.58;;;35.80;;
56285;SDS011;42191;47.562;9.686;2023-06-01T08:42:07;37.72;;;35.03;;
56285;SDS011;42191;47.562;9.686;2023-06-01T08:44:45;37.67;;;34.88;;
56285;SDS011;42191;47.562;9.686;2023-06-01T08:47:11;37.65;;;35.05;;
56285;SDS011;42191;47.562;9.686;2023-06-01T08:49:40;37.88;;;35.28;;
56285;SDS011;42191;47.562;9.686;2023-06-01T08:52:12;39.53;;;36.53;;
56285;SDS011;42191;47.562;9.686;2023-06-01T08:54:42;37.17;;;34.58;;
56285;SDS011;42191;47.562;9.686;2023-06-01T08:57:08;37.63;;;34.55;;
56285;SDS011;42191;47.562;9.686;2023-06-01T08:59:34;37.80;;;35.00;;
56285;SDS011;42191;47.562;9.686;2023-06-01T09:02:01;37.72;;;35.05;;
56285;SDS011;42191;47.562;9.686;2023-06-01T09:04:28;38.60;;;35.67;;
56285;SDS011;42191;47.562;9.686;2023-06-01T09:06:57;34.15;;;31.65;;
56285;SDS011;42191;47.562;9.686;2023-06-01T09:09:23;36.10;;;33.47;;
56285;SDS011;42191;47.562;9.686;2023-06-01T09:12:14;37.58;;;34.88;;
56285;SDS011;42191;47.562;9.686;2023-06-01T09:14:51;36.08;;;33.53;;
56285;SDS011;42191;47.562;9.686;2023-06-01T09:17:37;38.10;;;35.42;;
56285;SDS011;42191;47.562;9.686;2023-06-01T09:20:04;36.58;;;33.97;;
56285;SDS011;42191;47.562;9.686;2023-06-01T09:22:38;36.47;;;33.50;;
56285;SDS011;42191;47.562;9.686;2023-06-01T09:25:11;36.97;;;34.40;;
56285;SDS011;42191;47.562;9.686;2023-06-01T09:27:46;36.03;;;33.25;;
56285;SDS011;42191;47.562;9.686;2023-06-01T09:30:14;36.67;;;33.70;;
56285;SDS011;42191;47.562;9.686;2023-06-01T09:32:42;37.92;;;35.17;;
56285;SDS011;42191;47.562;9.686;2023-06-01T09:35:09;36.35;;;33.85;;
56285;SDS011;42191;47.562;9.686;2023-06-01T09:37:36;35.95;;;33.25;;
56285;SDS011;42191;47.562;9.686;2023-06-01T09:40:16;37.13;;;34.60;;
56285;SDS011;42191;47.562;9.686;2023-06-01T09:42:43;36.10;;;33.53;;
56285;SDS011;42191;47.562;9.686;2023-06-01T09:45:15;37.08;;;34.47;;
56285;SDS011;42191;47.562;9.686;2023-06-01T09:47:49;37.28;;;34.67;;
56285;SDS011;42191;47.562;9.686;2023-06-01T09:50:31;38.28;;;35.38;;
56285;SDS011;42191;47.562;9.686;2023-06-01T09:53:01;37.15;;;34.53;;
56285;SDS011;42191;47.562;9.686;2023-06-01T09:55:28;36.22;;;33.63;;
56285;SDS011;42191;47.562;9.686;2023-06-01T10:00:44;37.78;;;35.00;;
56285;SDS011;42191;47.562;9.686;2023-06-01T10:03:13;37.63;;;34.65;;
56285;SDS011;42191;47.562;9.686;2023-06-01T10:05:42;36.63;;;33.85;;
56285;SDS011;42191;47.562;9.686;2023-06-01T10:08:12;37.42;;;34.63;;
56285;SDS011;42191;47.562;9.686;2023-06-01T10:10:39;37.70;;;35.00;;
56285;SDS011;42191;47.562;9.686;2023-06-01T10:13:08;34.17;;;31.63;;
56285;SDS011;42191;47.562;9.686;2023-06-01T10:15:36;35.95;;;33.40;;
56285;SDS011;42191;47.562;9.686;2023-06-01T10:18:02;37.58;;;34.78;;
56285;SDS011;42191;47.562;9.686;2023-06-01T10:20:36;36.83;;;33.45;;
56285;SDS011;42191;47.562;9.686;2023-06-01T10:23:04;38.53;;;35.65;;
56285;SDS011;42191;47.562;9.686;2023-06-01T10:25:32;36.67;;;33.78;;
56285;SDS011;42191;47.562;9.686;2023-06-01T10:28:11;35.30;;;32.70;;
56285;SDS011;42191;47.562;9.686;2023-06-01T10:30:38;37.15;;;34.47;;
56285;SDS011;42191;47.562;9.686;2023-06-01T10:33:05;37.47;;;34.58;;
56285;SDS011;42191;47.562;9.686;2023-06-01T10:40:37;34.40;;;31.65;;
56285;SDS011;42191;47.562;9.686;2023-06-01T10:43:04;35.22;;;32.85;;
56285;SDS011;42191;47.562;9.686;2023-06-01T10:48:05;35.85;;;33.28;;
56285;SDS011;42191;47.562;9.686;2023-06-01T10:50:33;35.28;;;32.60;;
56285;SDS011;42191;47.562;9.686;2023-06-01T10:55:48;35.63;;;32.78;;
56285;SDS011;42191;47.562;9.686;2023-06-01T11:01:34;34.72;;;32.22;;
56285;SDS011;42191;47.562;9.686;2023-06-01T11:04:01;35.78;;;32.88;;
56285;SDS011;42191;47.562;9.686;2023-06-01T11:06:31;35.45;;;32.45;;
56285;SDS011;42191;47.562;9.686;2023-06-01T11:09:01;35.63;;;33.08;;
56285;SDS011;42191;47.562;9.686;2023-06-01T11:14:17;35.88;;;33.22;;
56285;SDS011;42191;47.562;9.686;2023-06-01T11:16:44;36.50;;;33.78;;
56285;SDS011;42191;47.562;9.686;2023-06-01T11:19:10;36.55;;;33.85;;
56285;SDS011;42191;47.562;9.686;2023-06-01T11:21:51;36.35;;;33.53;;
56285;SDS011;42191;47.562;9.686;2023-06-01T11:24:26;34.70;;;31.73;;
56285;SDS011;42191;47.562;9.686;2023-06-01T11:27:07;37.10;;;33.83;;
56285;SDS011;42191;47.562;9.686;2023-06-01T11:29:35;33.53;;;31.13;;
56285;SDS011;42191;47.562;9.686;2023-06-01T11:32:03;34.72;;;32.20;;
56285;SDS011;42191;47.562;9.686;2023-06-01T11:34:37;35.83;;;33.13;;
56285;SDS011;42191;47.562;9.686;2023-06-01T11:37:06;35.70;;;33.00;;
56285;SDS011;42191;47.562;9.686;2023-06-01T11:42:06;35.42;;;32.63;;
56285;SDS011;42191;47.562;9.686;2023-06-01T11:44:33;34.25;;;31.70;;
56285;SDS011;42191;47.562;9.686;2023-06-01T11:47:01;34.92;;;32.30;;
56285;SDS011;42191;47.562;9.686;2023-06-01T11:49:28;36.10;;;33.05;;
56285;SDS011;42191;47.562;9.686;2023-06-01T11:51:54;33.88;;;31.48;;
56285;SDS011;42191;47.562;9.686;2023-06-01T11:54:26;34.30;;;31.60;;
56285;SDS011;42191;47.562;9.686;2023-06-01T11:56:53;34.33;;;31.83;;
56285;SDS011;42191;47.562;9.686;2023-06-01T11:59:20;34.45;;;31.92;;
56285;SDS011;42191;47.562;9.686;2023-06-01T12:01:47;33.78;;;31.27;;
56285;SDS011;42191;47.562;9.686;2023-06-01T12:04:17;34.58;;;32.08;;
56285;SDS011;42191;47.562;9.686;2023-06-01T12:06:46;34.13;;;31.77;;
56285;SDS011;42191;47.562;9.686;2023-06-01T12:09:12;34.33;;;32.03;;
56285;SDS011;42191;47.562;9.686;2023-06-01T12:11:40;33.30;;;30.75;;
56285;SDS011;42191;47.562;9.686;2023-06-01T12:14:08;34.42;;;32.03;;
56285;SDS011;42191;47.562;9.686;2023-06-01T12:19:24;32.70;;;30.33;;
56285;SDS011;42191;47.562;9.686;2023-06-01T12:21:52;31.48;;;29.27;;
56285;SDS011;42191;47.562;9.686;2023-06-01T12:24:31;31.50;;;29.30;;
56285;SDS011;42191;47.562;9.686;2023-06-01T12:26:58;30.55;;;28.23;;
56285;SDS011;42191;47.562;9.686;2023-06-01T12:29:38;31.60;;;29.42;;
56285;SDS011;42191;47.562;9.686;2023-06-01T12:32:09;31.33;;;29.25;;
56285;SDS011;42191;47.562;9.686;2023-06-01T12:34:36;31.40;;;29.27;;
56285;SDS011;42191;47.562;9.686;2023-06-01T12:37:10;32.30;;;30.10;;
56285;SDS011;42191;47.562;9.686;2023-06-01T12:39:41;32.45;;;30.20;;
56285;SDS011;42191;47.562;9.686;2023-06-01T12:42:08;30.73;;;28.60;;
56285;SDS011;42191;47.562;9.686;2023-06-01T12:44:36;30.83;;;28.63;;
56285;SDS011;42191;47.562;9.686;2023-06-01T12:47:04;31.45;;;28.98;;
56285;SDS011;42191;47.562;9.686;2023-06-01T12:49:31;31.95;;;29.58;;
56285;SDS011;42191;47.562;9.686;2023-06-01T12:51:58;29.42;;;27.42;;
56285;SDS011;42191;47.562;9.686;2023-06-01T12:55:21;30.35;;;28.35;;
56285;SDS011;42191;47.562;9.686;2023-06-01T12:57:51;31.73;;;29.35;;
56285;SDS011;42191;47.562;9.686;2023-06-01T13:00:18;31.67;;;29.38;;
56285;SDS011;42191;47.562;9.686;2023-06-01T13:02:45;31.00;;;28.50;;
56285;SDS011;42191;47.562;9.686;2023-06-01T13:05:15;30.30;;;27.83;;
56285;SDS011;42191;47.562;9.686;2023-06-01T13:07:44;27.95;;;26.05;;
56285;SDS011;42191;47.562;9.686;2023-06-01T13:10:11;28.83;;;26.15;;
56285;SDS011;42191;47.562;9.686;2023-06-01T13:12:37;26.98;;;24.98;;
56285;SDS011;42191;47.562;9.686;2023-06-01T13:15:05;26.92;;;25.02;;
56285;SDS011;42191;47.562;9.686;2023-06-01T13:17:32;26.15;;;24.35;;
56285;SDS011;42191;47.562;9.686;2023-06-01T13:19:58;25.88;;;24.08;;
56285;SDS011;42191;47.562;9.686;2023-06-01T13:22:25;25.02;;;23.05;;
56285;SDS011;42191;47.562;9.686;2023-06-01T13:24:51;25.30;;;23.60;;
56285;SDS011;42191;47.562;9.686;2023-06-01T13:27:17;25.48;;;23.48;;
56285;SDS011;42191;47.562;9.686;2023-06-01T13:29:43;25.50;;;23.80;;
56285;SDS011;42191;47.562;9.686;2023-06-01T13:32:09;25.17;;;23.27;;
56285;SDS011;42191;47.562;9.686;2023-06-01T13:34:35;24.85;;;22.95;;
56285;SDS011;42191;47.562;9.686;2023-06-01T13:37:01;24.08;;;22.58;;
56285;SDS011;42191;47.562;9.686;2023-06-01T13:39:27;25.55;;;23.65;;
56285;SDS011;42191;47.562;9.686;2023-06-01T13:41:54;26.45;;;24.38;;
56285;SDS011;42191;47.562;9.686;2023-06-01T13:44:20;25.13;;;23.48;;
56285;SDS011;42191;47.562;9.686;2023-06-01T13:46:47;26.25;;;24.25;;
56285;SDS011;42191;47.562;9.686;2023-06-01T13:49:14;26.30;;;23.95;;
56285;SDS011;42191;47.562;9.686;2023-06-01T13:51:40;25.85;;;23.95;;
56285;SDS011;42191;47.562;9.686;2023-06-01T13:54:07;26.35;;;24.25;;
56285;SDS011;42191;47.562;9.686;2023-06-01T13:56:33;25.33;;;22.92;;
56285;SDS011;42191;47.562;9.686;2023-06-01T13:58:59;25.08;;;23.33;;
56285;SDS011;42191;47.562;9.686;2023-06-01T14:01:25;25.40;;;23.70;;
56285;SDS011;42191;47.562;9.686;2023-06-01T14:03:51;25.40;;;23.58;;
56285;SDS011;42191;47.562;9.686;2023-06-01T14:06:18;25.48;;;23.63;;
56285;SDS011;42191;47.562;9.686;2023-06-01T14:08:44;23.83;;;22.23;;
56285;SDS011;42191;47.562;9.686;2023-06-01T14:11:10;24.13;;;22.42;;
56285;SDS011;42191;47.562;9.686;2023-06-01T14:13:36;24.13;;;22.52;;
56285;SDS011;42191;47.562;9.686;2023-06-01T14:16:02;23.65;;;21.95;;
56285;SDS011;42191;47.562;9.686;2023-06-01T14:18:28;24.30;;;22.60;;
56285;SDS011;42191;47.562;9.686;2023-06-01T14:20:54;24.90;;;23.13;;
56285;SDS011;42191;47.562;9.686;2023-06-01T14:23:21;24.90;;;23.13;;
56285;SDS011;42191;47.562;9.686;2023-06-01T14:25:47;25.05;;;23.42;;
56285;SDS011;42191;47.562;9.686;2023-06-01T14:28:13;24.35;;;22.70;;
56285;SDS011;42191;47.562;9.686;2023-06-01T14:30:39;24.13;;;22.52;;
56285;SDS011;42191;47.562;9.686;2023-06-01T14:33:05;24.70;;;22.98;;
56285;SDS011;42191;47.562;9.686;2023-06-01T14:35:31;24.35;;;22.77;;
56285;SDS011;42191;47.562;9.686;2023-06-01T14:37:58;24.67;;;22.98;;
56285;SDS011;42191;47.562;9.686;2023-06-01T14:40:24;23.88;;;22.38;;
56285;SDS011;42191;47.562;9.686;2023-06-01T14:42:50;23.92;;;22.33;;
56285;SDS011;42191;47.562;9.686;2023-06-01T14:45:16;23.85;;;22.13;;
56285;SDS011;42191;47.562;9.686;2023-06-01T14:47:44;23.48;;;21.85;;
56285;SDS011;42191;47.562;9.686;2023-06-01T14:50:11;23.73;;;22.10;;
56285;SDS011;42191;47.562;9.686;2023-06-01T14:52:37;23.40;;;21.75;;
56285;SDS011;42191;47.562;9.686;2023-06-01T14:55:03;23.33;;;21.73;;
56285;SDS011;42191;47.562;9.686;2023-06-01T14:57:30;23.50;;;22.00;;
56285;SDS011;42191;47.562;9.686;2023-06-01T14:59:56;24.08;;;22.48;;
56285;SDS011;42191;47.562;9.686;2023-06-01T15:02:23;23.15;;;21.65;;
56285;SDS011;42191;47.562;9.686;2023-06-01T15:04:49;24.15;;;22.40;;
56285;SDS011;42191;47.562;9.686;2023-06-01T15:07:16;24.10;;;22.30;;
56285;SDS011;42191;47.562;9.686;2023-06-01T15:09:42;24.38;;;22.77;;